sensor_id;sensor_type;location;lat;lon;timestamp;pressure;altitude;pressure_sealevel;temperature;humidity
39487;BME280;25173;50.430;18.926;2023-07-13T00:01:47;97868.28;;;22.66;74.36
39487;BME280;25173;50.430;18.926;2023-07-13T00:04:49;97886.53;;;22.67;74.26
39487;BME280;25173;50.430;18.926;2023-07-13T00:07:51;97897.66;;;22.67;74.39
39487;BME280;25173;50.430;18.926;2023-07-13T00:10:52;97900.50;;;22.71;74.39
39487;BME280;25173;50.430;18.926;2023-07-13T00:13:54;97921.22;;;22.73;74.27
39487;BME280;25173;50.430;18.926;2023-07-13T00:16:56;97913.91;;;22.69;74.51
39487;BME280;25173;50.430;18.926;2023-07-13T00:19:57;97901.47;;;22.63;74.38
39487;BME280;25173;50.430;18.926;2023-07-13T00:22:58;97906.31;;;22.66;74.42
39487;BME280;25173;50.430;18.926;2023-07-13T00:26:00;97906.41;;;22.69;74.29
39487;BME280;25173;50.430;18.926;2023-07-13T00:29:01;97906.19;;;22.74;74.09
39487;BME280;25173;50.430;18.926;2023-07-13T00:32:04;97905.44;;;22.77;73.78
39487;BME280;25173;50.430;18.926;2023-07-13T00:35:06;97890.09;;;22.83;73.84
39487;BME280;25173;50.430;18.926;2023-07-13T00:38:06;97886.25;;;22.88;73.65
39487;BME280;25173;50.430;18.926;2023-07-13T00:41:07;97881.22;;;22.94;73.49
39487;BME280;25173;50.430;18.926;2023-07-13T00:44:18;97883.72;;;22.99;74.11
39487;BME280;25173;50.430;18.926;2023-07-13T00:47:19;97869.81;;;22.99;73.39
39487;BME280;25173;50.430;18.926;2023-07-13T00:50:21;97877.44;;;23.02;73.28
39487;BME280;25173;50.430;18.926;2023-07-13T00:53:24;97870.72;;;23.03;73.70
39487;BME280;25173;50.430;18.926;2023-07-13T00:56:26;97864.38;;;23.02;73.46
39487;BME280;25173;50.430;18.926;2023-07-13T00:59:28;97850.13;;;23.04;73.52
39487;BME280;25173;50.430;18.926;2023-07-13T01:02:30;97848.91;;;23.05;72.94
39487;BME280;25173;50.430;18.926;2023-07-13T01:05:33;97843.81;;;23.07;73.24
39487;BME280;25173;50.430;18.926;2023-07-13T01:08:34;97860.13;;;23.08;73.10
39487;BME280;25173;50.430;18.926;2023-07-13T01:11:35;97876.28;;;23.03;72.68
39487;BME280;25173;50.430;18.926;2023-07-13T01:14:37;97869.81;;;22.99;72.91
39487;BME280;25173;50.430;18.926;2023-07-13T01:17:37;97867.03;;;22.99;72.92
39487;BME280;25173;50.430;18.926;2023-07-13T01:20:41;97864.38;;;23.02;73.50
39487;BME280;25173;50.430;18.926;2023-07-13T01:23:42;97854.06;;;23.03;73.54
39487;BME280;25173;50.430;18.926;2023-07-13T01:26:44;97853.31;;;23.06;73.18
39487;BME280;25173;50.430;18.926;2023-07-13T01:29:45;97863.72;;;23.09;73.25
39487;BME280;25173;50.430;18.926;2023-07-13T01:32:47;97863.72;;;23.09;73.18
39487;BME280;25173;50.430;18.926;2023-07-13T01:35:48;97860.13;;;23.08;73.67
39487;BME280;25173;50.430;18.926;2023-07-13T01:38:50;97860.47;;;23.07;73.55
39487;BME280;25173;50.430;18.926;2023-07-13T01:41:51;97847.75;;;23.06;73.71
39487;BME280;25173;50.430;18.926;2023-07-13T01:44:54;97848.91;;;23.05;73.40
39487;BME280;25173;50.430;18.926;2023-07-13T01:47:54;97847.75;;;23.06;73.25
39487;BME280;25173;50.430;18.926;2023-07-13T01:50:55;97854.22;;;23.10;73.31
39487;BME280;25173;50.430;18.926;2023-07-13T01:53:56;97860.03;;;23.05;72.82
39487;BME280;25173;50.430;18.926;2023-07-13T01:56:57;97864.44;;;23.06;72.69
39487;BME280;25173;50.430;18.926;2023-07-13T01:59:58;97863.91;;;23.00;72.05
39487;BME280;25173;50.430;18.926;2023-07-13T02:02:59;97827.13;;;22.88;72.17
39487;BME280;25173;50.430;18.926;2023-07-13T02:06:00;97815.13;;;22.83;72.50
39487;BME280;25173;50.430;18.926;2023-07-13T02:09:00;97809.56;;;22.83;72.23
39487;BME280;25173;50.430;18.926;2023-07-13T02:12:01;97798.91;;;22.86;72.25
39487;BME280;25173;50.430;18.926;2023-07-13T02:15:07;97803.00;;;22.92;72.71
39487;BME280;25173;50.430;18.926;2023-07-13T02:18:08;97793.97;;;22.95;72.41
39487;BME280;25173;50.430;18.926;2023-07-13T02:21:09;97778.59;;;23.01;72.62
39487;BME280;25173;50.430;18.926;2023-07-13T02:24:09;97765.59;;;23.05;72.33
39487;BME280;25173;50.430;18.926;2023-07-13T02:27:16;97767.19;;;23.06;72.10
39487;BME280;25173;50.430;18.926;2023-07-13T02:30:17;97771.81;;;22.98;71.70
39487;BME280;25173;50.430;18.926;2023-07-13T02:33:17;97770.44;;;22.89;72.04
39487;BME280;25173;50.430;18.926;2023-07-13T02:36:18;97775.09;;;22.84;72.01
39487;BME280;25173;50.430;18.926;2023-07-13T02:39:20;97767.22;;;22.71;72.05
39487;BME280;25173;50.430;18.926;2023-07-13T02:42:20;97780.94;;;22.64;71.80
39487;BME280;25173;50.430;18.926;2023-07-13T02:45:21;97774.25;;;22.49;72.32
39487;BME280;25173;50.430;18.926;2023-07-13T02:48:22;97771.63;;;22.37;71.99
39487;BME280;25173;50.430;18.926;2023-07-13T02:51:22;97768.38;;;22.35;72.61
39487;BME280;25173;50.430;18.926;2023-07-13T02:54:23;97775.63;;;22.39;72.55
39487;BME280;25173;50.430;18.926;2023-07-13T02:57:24;97795.16;;;22.43;72.25
39487;BME280;25173;50.430;18.926;2023-07-13T03:00:24;97814.56;;;22.43;72.60
39487;BME280;25173;50.430;18.926;2023-07-13T03:03:26;97825.31;;;22.44;72.60
39487;BME280;25173;50.430;18.926;2023-07-13T03:06:27;97841.06;;;22.40;72.81
39487;BME280;25173;50.430;18.926;2023-07-13T03:09:32;97850.72;;;22.31;72.64
39487;BME280;25173;50.430;18.926;2023-07-13T03:12:34;97864.69;;;22.19;72.29
39487;BME280;25173;50.430;18.926;2023-07-13T03:15:38;97850.28;;;22.13;72.46
39487;BME280;25173;50.430;18.926;2023-07-13T03:18:39;97866.59;;;22.15;72.77
39487;BME280;25173;50.430;18.926;2023-07-13T03:21:42;97869.38;;;22.15;72.42
39487;BME280;25173;50.430;18.926;2023-07-13T03:24:44;97867.75;;;22.14;72.74
39487;BME280;25173;50.430;18.926;2023-07-13T03:27:48;97872.56;;;22.17;72.41
39487;BME280;25173;50.430;18.926;2023-07-13T03:31:07;97876.72;;;22.23;72.72
39487;BME280;25173;50.430;18.926;2023-07-13T03:34:08;97865.22;;;22.24;72.47
39487;BME280;25173;50.430;18.926;2023-07-13T03:37:11;97867.19;;;22.24;72.24
39487;BME280;25173;50.430;18.926;2023-07-13T03:40:12;97866.03;;;22.25;72.51
39487;BME280;25173;50.430;18.926;2023-07-13T03:43:13;97863.72;;;22.27;72.66
39487;BME280;25173;50.430;18.926;2023-07-13T03:46:14;97864.16;;;22.29;72.60
39487;BME280;25173;50.430;18.926;2023-07-13T03:49:15;97862.56;;;22.28;72.76
39487;BME280;25173;50.430;18.926;2023-07-13T03:52:16;97856.28;;;22.31;72.94
39487;BME280;25173;50.430;18.926;2023-07-13T03:55:16;97864.78;;;22.38;72.56
39487;BME280;25173;50.430;18.926;2023-07-13T03:58:33;97876.97;;;22.49;73.39
39487;BME280;25173;50.430;18.926;2023-07-13T04:01:43;97883.38;;;22.53;73.01
39487;BME280;25173;50.430;18.926;2023-07-13T04:04:46;97890.72;;;22.61;73.08
39487;BME280;25173;50.430;18.926;2023-07-13T04:07:47;97896.91;;;22.70;72.92
39487;BME280;25173;50.430;18.926;2023-07-13T04:10:47;97903.94;;;22.80;72.53
39487;BME280;25173;50.430;18.926;2023-07-13T04:13:49;97900.84;;;22.85;72.37
39487;BME280;25173;50.430;18.926;2023-07-13T04:16:49;97913.69;;;22.90;72.77
39487;BME280;25173;50.430;18.926;2023-07-13T04:19:50;97920.56;;;22.96;72.89
39487;BME280;25173;50.430;18.926;2023-07-13T04:22:52;97916.03;;;23.07;73.12
39487;BME280;25173;50.430;18.926;2023-07-13T04:25:53;97917.16;;;23.21;73.76
39487;BME280;25173;50.430;18.926;2023-07-13T04:28:54;97913.19;;;23.38;73.73
39487;BME280;25173;50.430;18.926;2023-07-13T04:31:55;97919.53;;;23.54;73.75
39487;BME280;25173;50.430;18.926;2023-07-13T04:34:55;97908.34;;;23.70;73.12
39487;BME280;25173;50.430;18.926;2023-07-13T04:37:57;97902.69;;;23.86;73.54
39487;BME280;25173;50.430;18.926;2023-07-13T04:41:01;97897.00;;;24.02;73.73
39487;BME280;25173;50.430;18.926;2023-07-13T04:44:02;97886.09;;;24.12;73.07
39487;BME280;25173;50.430;18.926;2023-07-13T04:47:03;97887.50;;;24.22;73.02
39487;BME280;25173;50.430;18.926;2023-07-13T04:50:05;97873.34;;;24.30;72.66
39487;BME280;25173;50.430;18.926;2023-07-13T04:53:06;97880.19;;;24.36;72.23
39487;BME280;25173;50.430;18.926;2023-07-13T04:56:07;97868.81;;;24.45;72.45
39487;BME280;25173;50.430;18.926;2023-07-13T04:59:07;97875.34;;;24.56;72.06
39487;BME280;25173;50.430;18.926;2023-07-13T05:02:08;97881.09;;;24.67;71.51
39487;BME280;25173;50.430;18.926;2023-07-13T05:05:08;97878.47;;;24.77;71.67
39487;BME280;25173;50.430;18.926;2023-07-13T05:08:09;97881.44;;;24.88;71.60
39487;BME280;25173;50.430;18.926;2023-07-13T05:11:09;97878.88;;;25.02;71.60
39487;BME280;25173;50.430;18.926;2023-07-13T05:14:10;97866.75;;;25.18;70.84
39487;BME280;25173;50.430;18.926;2023-07-13T05:17:11;97874.88;;;25.30;70.30
39487;BME280;25173;50.430;18.926;2023-07-13T05:20:11;97872.59;;;25.39;69.71
39487;BME280;25173;50.430;18.926;2023-07-13T05:23:12;97876.28;;;25.46;69.19
39487;BME280;25173;50.430;18.926;2023-07-13T05:26:12;97881.50;;;25.48;69.39
39487;BME280;25173;50.430;18.926;2023-07-13T05:29:13;97888.34;;;25.54;69.18
39487;BME280;25173;50.430;18.926;2023-07-13T05:32:13;97882.53;;;25.66;69.48
39487;BME280;25173;50.430;18.926;2023-07-13T05:35:14;97876.72;;;25.78;69.25
39487;BME280;25173;50.430;18.926;2023-07-13T05:38:14;97883.63;;;25.92;69.30
39487;BME280;25173;50.430;18.926;2023-07-13T05:41:15;97878.16;;;26.02;69.37
39487;BME280;25173;50.430;18.926;2023-07-13T05:44:17;97868.72;;;26.14;68.60
39487;BME280;25173;50.430;18.926;2023-07-13T05:47:19;97863.19;;;26.21;67.90
39487;BME280;25173;50.430;18.926;2023-07-13T05:50:19;97866.47;;;26.26;67.43
39487;BME280;25173;50.430;18.926;2023-07-13T05:53:20;97870.88;;;26.31;67.59
39487;BME280;25173;50.430;18.926;2023-07-13T05:56:21;97866.59;;;26.37;67.82
39487;BME280;25173;50.430;18.926;2023-07-13T05:59:21;97864.66;;;26.45;67.18
39487;BME280;25173;50.430;18.926;2023-07-13T06:02:22;97866.69;;;26.51;66.82
39487;BME280;25173;50.430;18.926;2023-07-13T06:05:22;97859.56;;;26.57;66.43
39487;BME280;25173;50.430;18.926;2023-07-13T06:08:23;97852.03;;;26.65;66.40
39487;BME280;25173;50.430;18.926;2023-07-13T06:11:26;97856.84;;;26.68;65.67
39487;BME280;25173;50.430;18.926;2023-07-13T06:14:27;97850.03;;;26.65;65.39
39487;BME280;25173;50.430;18.926;2023-07-13T06:17:28;97848.06;;;26.66;64.98
39487;BME280;25173;50.430;18.926;2023-07-13T06:20:30;97847.69;;;26.67;65.90
39487;BME280;25173;50.430;18.926;2023-07-13T06:23:30;97848.91;;;26.77;65.59
39487;BME280;25173;50.430;18.926;2023-07-13T06:26:31;97848.19;;;26.87;64.69
39487;BME280;25173;50.430;18.926;2023-07-13T06:29:32;97854.28;;;26.96;64.75
39487;BME280;25173;50.430;18.926;2023-07-13T06:32:33;97858.31;;;27.06;64.79
39487;BME280;25173;50.430;18.926;2023-07-13T06:35:33;97870.38;;;27.17;63.65
39487;BME280;25173;50.430;18.926;2023-07-13T06:38:34;97862.84;;;27.28;63.68
39487;BME280;25173;50.430;18.926;2023-07-13T06:41:34;97861.72;;;27.43;63.76
39487;BME280;25173;50.430;18.926;2023-07-13T06:44:36;97875.44;;;27.63;63.19
39487;BME280;25173;50.430;18.926;2023-07-13T06:47:37;97865.50;;;27.83;63.14
39487;BME280;25173;50.430;18.926;2023-07-13T06:50:38;97869.56;;;28.03;62.92
39487;BME280;25173;50.430;18.926;2023-07-13T06:53:38;97868.81;;;28.24;62.66
39487;BME280;25173;50.430;18.926;2023-07-13T06:56:39;97886.06;;;28.44;61.88
39487;BME280;25173;50.430;18.926;2023-07-13T06:59:40;97890.47;;;28.59;60.80
39487;BME280;25173;50.430;18.926;2023-07-13T07:02:40;97891.69;;;28.65;59.94
39487;BME280;25173;50.430;18.926;2023-07-13T07:05:41;97888.47;;;28.70;58.41
39487;BME280;25173;50.430;18.926;2023-07-13T07:08:41;97892.09;;;28.78;58.73
39487;BME280;25173;50.430;18.926;2023-07-13T07:11:42;97895.69;;;28.85;58.00
39487;BME280;25173;50.430;18.926;2023-07-13T07:14:43;97906.50;;;28.90;56.92
39487;BME280;25173;50.430;18.926;2023-07-13T07:17:43;97911.31;;;28.93;56.59
39487;BME280;25173;50.430;18.926;2023-07-13T07:20:44;97920.53;;;28.94;56.12
39487;BME280;25173;50.430;18.926;2023-07-13T07:23:45;97920.13;;;28.92;55.47
39487;BME280;25173;50.430;18.926;2023-07-13T07:26:45;97927.75;;;28.77;55.33
39487;BME280;25173;50.430;18.926;2023-07-13T07:29:46;97934.13;;;28.53;55.35
39487;BME280;25173;50.430;18.926;2023-07-13T07:32:47;97940.44;;;28.25;56.09
39487;BME280;25173;50.430;18.926;2023-07-13T07:35:47;97941.16;;;28.01;56.66
39487;BME280;25173;50.430;18.926;2023-07-13T07:38:48;97939.88;;;27.77;57.05
39487;BME280;25173;50.430;18.926;2023-07-13T07:41:49;97950.47;;;27.47;58.13
39487;BME280;25173;50.430;18.926;2023-07-13T07:44:49;97952.66;;;27.16;59.19
39487;BME280;25173;50.430;18.926;2023-07-13T07:47:50;97954.50;;;26.94;59.64
39487;BME280;25173;50.430;18.926;2023-07-13T07:50:50;97952.75;;;26.83;60.53
39487;BME280;25173;50.430;18.926;2023-07-13T07:53:51;97953.00;;;26.63;60.84
39487;BME280;25173;50.430;18.926;2023-07-13T07:56:51;97945.31;;;26.53;61.33
39487;BME280;25173;50.430;18.926;2023-07-13T07:59:52;97945.34;;;26.57;61.11
39487;BME280;25173;50.430;18.926;2023-07-13T08:02:53;97940.16;;;26.55;61.26
39487;BME280;25173;50.430;18.926;2023-07-13T08:05:53;97946.34;;;26.38;61.18
39487;BME280;25173;50.430;18.926;2023-07-13T08:08:54;97947.91;;;26.32;61.99
39487;BME280;25173;50.430;18.926;2023-07-13T08:11:55;97935.91;;;26.32;61.37
39487;BME280;25173;50.430;18.926;2023-07-13T08:14:56;97929.03;;;26.22;61.26
39487;BME280;25173;50.430;18.926;2023-07-13T08:18:00;97919.03;;;26.21;61.83
39487;BME280;25173;50.430;18.926;2023-07-13T08:21:06;97912.66;;;26.24;62.05
39487;BME280;25173;50.430;18.926;2023-07-13T08:24:07;97907.31;;;26.42;62.33
39487;BME280;25173;50.430;18.926;2023-07-13T08:27:08;97906.78;;;26.73;62.23
39487;BME280;25173;50.430;18.926;2023-07-13T08:30:08;97909.34;;;26.92;61.43
39487;BME280;25173;50.430;18.926;2023-07-13T08:33:09;97903.44;;;27.01;61.03
39487;BME280;25173;50.430;18.926;2023-07-13T08:36:10;97915.91;;;27.14;60.77
39487;BME280;25173;50.430;18.926;2023-07-13T08:39:10;97919.88;;;27.10;59.50
39487;BME280;25173;50.430;18.926;2023-07-13T08:45:52;97921.81;;;27.02;59.61
39487;BME280;25173;50.430;18.926;2023-07-13T08:49:02;97923.81;;;27.05;59.50
39487;BME280;25173;50.430;18.926;2023-07-13T08:52:10;97942.31;;;26.73;59.49
39487;BME280;25173;50.430;18.926;2023-07-13T08:55:17;97949.47;;;26.30;59.89
39487;BME280;25173;50.430;18.926;2023-07-13T08:58:18;97952.59;;;25.91;60.42
39487;BME280;25173;50.430;18.926;2023-07-13T09:01:30;97955.19;;;25.47;60.39
39487;BME280;25173;50.430;18.926;2023-07-13T09:05:43;97966.00;;;24.99;61.54
39487;BME280;25173;50.430;18.926;2023-07-13T09:12:07;97994.50;;;24.47;61.72
39487;BME280;25173;50.430;18.926;2023-07-13T09:15:29;97970.44;;;24.16;62.34
39487;BME280;25173;50.430;18.926;2023-07-13T09:18:39;97982.31;;;23.94;62.62
39487;BME280;25173;50.430;18.926;2023-07-13T09:21:42;97986.41;;;23.81;62.65
39487;BME280;25173;50.430;18.926;2023-07-13T09:28:00;97992.81;;;23.31;61.99
39487;BME280;25173;50.430;18.926;2023-07-13T09:31:06;98002.16;;;23.22;61.79
39487;BME280;25173;50.430;18.926;2023-07-13T09:34:10;98005.84;;;23.11;61.73
39487;BME280;25173;50.430;18.926;2023-07-13T09:37:11;98016.06;;;23.07;62.24
39487;BME280;25173;50.430;18.926;2023-07-13T09:40:25;98028.91;;;22.96;62.20
39487;BME280;25173;50.430;18.926;2023-07-13T09:43:28;98038.28;;;22.75;62.75
39487;BME280;25173;50.430;18.926;2023-07-13T09:46:29;98051.91;;;22.37;63.41
39487;BME280;25173;50.430;18.926;2023-07-13T09:49:34;98069.94;;;22.03;64.31
39487;BME280;25173;50.430;18.926;2023-07-13T09:52:48;98071.47;;;21.64;65.73
39487;BME280;25173;50.430;18.926;2023-07-13T09:55:49;98091.03;;;21.19;67.63
39487;BME280;25173;50.430;18.926;2023-07-13T09:58:50;98093.13;;;20.77;69.57
39487;BME280;25173;50.430;18.926;2023-07-13T10:01:50;98091.78;;;20.29;71.73
39487;BME280;25173;50.430;18.926;2023-07-13T10:05:11;98092.25;;;19.39;78.22
39487;BME280;25173;50.430;18.926;2023-07-13T10:08:29;98094.94;;;18.72;83.38
39487;BME280;25173;50.430;18.926;2023-07-13T10:11:30;98093.88;;;18.30;85.62
39487;BME280;25173;50.430;18.926;2023-07-13T10:14:37;98091.63;;;18.15;86.13
39487;BME280;25173;50.430;18.926;2023-07-13T10:17:39;98077.16;;;18.01;88.66
39487;BME280;25173;50.430;18.926;2023-07-13T10:20:41;98073.44;;;17.88;89.66
39487;BME280;25173;50.430;18.926;2023-07-13T10:23:42;98069.06;;;17.87;90.02
39487;BME280;25173;50.430;18.926;2023-07-13T10:27:17;98051.41;;;17.97;90.82
39487;BME280;25173;50.430;18.926;2023-07-13T10:33:28;98052.03;;;18.02;89.40
39487;BME280;25173;50.430;18.926;2023-07-13T10:36:47;98064.50;;;18.17;89.71
39487;BME280;25173;50.430;18.926;2023-07-13T10:39:50;98062.06;;;18.33;89.16
39487;BME280;25173;50.430;18.926;2023-07-13T10:42:56;98060.59;;;18.44;88.76
39487;BME280;25173;50.430;18.926;2023-07-13T10:45:59;98053.78;;;18.41;89.01
39487;BME280;25173;50.430;18.926;2023-07-13T10:49:05;98053.44;;;18.51;89.42
39487;BME280;25173;50.430;18.926;2023-07-13T10:52:20;98044.59;;;18.75;90.21
39487;BME280;25173;50.430;18.926;2023-07-13T10:59:12;98057.69;;;18.95;89.57
39487;BME280;25173;50.430;18.926;2023-07-13T11:02:26;98058.00;;;19.03;89.61
39487;BME280;25173;50.430;18.926;2023-07-13T11:05:30;98058.94;;;19.07;89.14
39487;BME280;25173;50.430;18.926;2023-07-13T11:08:34;98055.59;;;19.22;89.68
39487;BME280;25173;50.430;18.926;2023-07-13T11:11:38;98065.06;;;19.42;89.94
39487;BME280;25173;50.430;18.926;2023-07-13T11:17:55;98061.09;;;19.81;90.90
39487;BME280;25173;50.430;18.926;2023-07-13T11:21:15;98065.56;;;20.14;90.93
39487;BME280;25173;50.430;18.926;2023-07-13T11:24:17;98073.09;;;20.26;89.83
39487;BME280;25173;50.430;18.926;2023-07-13T11:27:41;98062.81;;;20.47;91.29
39487;BME280;25173;50.430;18.926;2023-07-13T11:30:48;98064.50;;;20.73;91.06
39487;BME280;25173;50.430;18.926;2023-07-13T11:33:53;98060.03;;;21.05;91.21
39487;BME280;25173;50.430;18.926;2023-07-13T11:36:56;98074.50;;;21.35;90.86
39487;BME280;25173;50.430;18.926;2023-07-13T11:39:57;98078.41;;;21.58;90.70
39487;BME280;25173;50.430;18.926;2023-07-13T11:43:01;98087.88;;;21.81;90.26
39487;BME280;25173;50.430;18.926;2023-07-13T11:46:14;98087.94;;;22.09;90.96
39487;BME280;25173;50.430;18.926;2023-07-13T11:49:17;98091.50;;;22.22;89.54
39487;BME280;25173;50.430;18.926;2023-07-13T11:52:20;98092.50;;;22.29;88.93
39487;BME280;25173;50.430;18.926;2023-07-13T11:55:22;98092.59;;;22.33;88.67
39487;BME280;25173;50.430;18.926;2023-07-13T11:58:26;98099.88;;;22.37;86.80
39487;BME280;25173;50.430;18.926;2023-07-13T12:01:30;98095.56;;;22.12;86.59
39487;BME280;25173;50.430;18.926;2023-07-13T12:04:34;98103.09;;;21.87;86.80
39487;BME280;25173;50.430;18.926;2023-07-13T12:07:35;98088.06;;;21.88;89.11
39487;BME280;25173;50.430;18.926;2023-07-13T12:10:38;98086.56;;;22.03;88.28
39487;BME280;25173;50.430;18.926;2023-07-13T12:13:39;98106.09;;;21.94;87.06
39487;BME280;25173;50.430;18.926;2023-07-13T12:16:42;98102.66;;;21.97;87.80
39487;BME280;25173;50.430;18.926;2023-07-13T12:19:44;98117.91;;;21.79;85.96
39487;BME280;25173;50.430;18.926;2023-07-13T12:22:47;98117.00;;;21.51;86.55
39487;BME280;25173;50.430;18.926;2023-07-13T12:25:47;98122.09;;;21.49;87.15
39487;BME280;25173;50.430;18.926;2023-07-13T12:28:52;98126.00;;;21.36;85.65
39487;BME280;25173;50.430;18.926;2023-07-13T12:31:57;98118.66;;;21.07;86.20
39487;BME280;25173;50.430;18.926;2023-07-13T12:35:13;98113.59;;;21.09;86.59
39487;BME280;25173;50.430;18.926;2023-07-13T12:38:16;98123.31;;;21.15;86.65
39487;BME280;25173;50.430;18.926;2023-07-13T12:41:17;98127.56;;;21.12;86.96
39487;BME280;25173;50.430;18.926;2023-07-13T12:44:31;98127.16;;;21.35;88.50
39487;BME280;25173;50.430;18.926;2023-07-13T12:47:40;98124.97;;;21.64;87.52
39487;BME280;25173;50.430;18.926;2023-07-13T12:50:46;98122.41;;;21.72;85.49
39487;BME280;25173;50.430;18.926;2023-07-13T12:53:50;98120.44;;;21.72;85.29
39487;BME280;25173;50.430;18.926;2023-07-13T12:56:56;98116.16;;;21.87;86.07
39487;BME280;25173;50.430;18.926;2023-07-13T12:59:58;98117.44;;;22.01;85.08
39487;BME280;25173;50.430;18.926;2023-07-13T13:03:22;98116.47;;;22.10;84.54
39487;BME280;25173;50.430;18.926;2023-07-13T13:06:26;98111.59;;;22.19;83.99
39487;BME280;25173;50.430;18.926;2023-07-13T13:09:27;98119.88;;;22.31;82.36
39487;BME280;25173;50.430;18.926;2023-07-13T13:12:28;98129.22;;;22.38;81.41
39487;BME280;25173;50.430;18.926;2023-07-13T13:15:28;98132.03;;;22.66;82.33
39487;BME280;25173;50.430;18.926;2023-07-13T13:18:30;98137.69;;;23.29;81.48
39487;BME280;25173;50.430;18.926;2023-07-13T13:21:31;98138.88;;;23.75;79.79
39487;BME280;25173;50.430;18.926;2023-07-13T13:24:32;98138.31;;;23.85;76.90
39487;BME280;25173;50.430;18.926;2023-07-13T13:27:33;98143.59;;;23.90;76.80
39487;BME280;25173;50.430;18.926;2023-07-13T13:30:34;98143.47;;;24.03;76.10
39487;BME280;25173;50.430;18.926;2023-07-13T13:33:34;98153.31;;;24.16;75.19
39487;BME280;25173;50.430;18.926;2023-07-13T13:36:35;98162.75;;;24.11;73.33
39487;BME280;25173;50.430;18.926;2023-07-13T13:39:36;98152.09;;;23.97;73.47
39487;BME280;25173;50.430;18.926;2023-07-13T13:42:39;98155.25;;;23.96;73.44
39487;BME280;25173;50.430;18.926;2023-07-13T13:45:39;98148.63;;;24.01;73.50
39487;BME280;25173;50.430;18.926;2023-07-13T13:48:40;98146.81;;;24.08;72.80
39487;BME280;25173;50.430;18.926;2023-07-13T13:51:41;98142.09;;;23.93;71.81
39487;BME280;25173;50.430;18.926;2023-07-13T13:54:42;98150.34;;;23.74;71.40
39487;BME280;25173;50.430;18.926;2023-07-13T13:57:43;98155.53;;;23.44;71.51
39487;BME280;25173;50.430;18.926;2023-07-13T14:00:43;98159.38;;;23.08;72.19
39487;BME280;25173;50.430;18.926;2023-07-13T14:03:46;98168.78;;;22.75;73.22
39487;BME280;25173;50.430;18.926;2023-07-13T14:06:49;98169.72;;;22.79;74.07
39487;BME280;25173;50.430;18.926;2023-07-13T14:09:52;98168.41;;;23.05;74.26
39487;BME280;25173;50.430;18.926;2023-07-13T14:12:54;98157.34;;;23.36;73.93
39487;BME280;25173;50.430;18.926;2023-07-13T14:15:56;98176.38;;;23.50;72.39
39487;BME280;25173;50.430;18.926;2023-07-13T14:18:57;98175.09;;;23.47;72.67
39487;BME280;25173;50.430;18.926;2023-07-13T14:22:00;98178.72;;;23.64;71.44
39487;BME280;25173;50.430;18.926;2023-07-13T14:25:01;98180.88;;;23.86;70.82
39487;BME280;25173;50.430;18.926;2023-07-13T14:28:15;98162.59;;;24.04;69.87
39487;BME280;25173;50.430;18.926;2023-07-13T14:31:20;98169.13;;;24.27;68.81
39487;BME280;25173;50.430;18.926;2023-07-13T14:34:20;98161.47;;;24.24;67.41
39487;BME280;25173;50.430;18.926;2023-07-13T14:37:23;98166.94;;;24.36;66.60
39487;BME280;25173;50.430;18.926;2023-07-13T14:40:29;98162.69;;;24.43;66.67
39487;BME280;25173;50.430;18.926;2023-07-13T14:43:30;98150.81;;;24.84;66.33
39487;BME280;25173;50.430;18.926;2023-07-13T14:46:33;98146.00;;;25.69;65.07
39487;BME280;25173;50.430;18.926;2023-07-13T14:49:37;98151.34;;;26.30;61.35
39487;BME280;25173;50.430;18.926;2023-07-13T14:52:38;98148.53;;;26.90;59.88
39487;BME280;25173;50.430;18.926;2023-07-13T14:55:39;98140.59;;;27.80;58.62
39487;BME280;25173;50.430;18.926;2023-07-13T14:58:40;98139.09;;;28.55;55.92
39487;BME280;25173;50.430;18.926;2023-07-13T15:01:41;98146.56;;;29.27;55.02
39487;BME280;25173;50.430;18.926;2023-07-13T15:04:42;98151.44;;;29.97;52.32
39487;BME280;25173;50.430;18.926;2023-07-13T15:07:44;98161.38;;;30.48;50.85
39487;BME280;25173;50.430;18.926;2023-07-13T15:10:44;98155.25;;;30.78;50.05
39487;BME280;25173;50.430;18.926;2023-07-13T15:13:45;98155.97;;;31.00;48.17
39487;BME280;25173;50.430;18.926;2023-07-13T15:16:47;98168.19;;;30.54;48.06
39487;BME280;25173;50.430;18.926;2023-07-13T15:19:49;98166.28;;;29.94;48.48
39487;BME280;25173;50.430;18.926;2023-07-13T15:22:50;98164.66;;;29.61;48.95
39487;BME280;25173;50.430;18.926;2023-07-13T15:25:51;98159.47;;;29.70;49.60
39487;BME280;25173;50.430;18.926;2023-07-13T15:28:52;98158.63;;;30.16;48.68
39487;BME280;25173;50.430;18.926;2023-07-13T15:31:53;98143.06;;;31.09;47.92
39487;BME280;25173;50.430;18.926;2023-07-13T15:34:54;98143.38;;;31.81;45.81
39487;BME280;25173;50.430;18.926;2023-07-13T15:37:55;98137.97;;;32.75;46.24
39487;BME280;25173;50.430;18.926;2023-07-13T15:40:56;98150.31;;;33.49;43.72
39487;BME280;25173;50.430;18.926;2023-07-13T15:43:58;98151.94;;;33.47;42.85
39487;BME280;25173;50.430;18.926;2023-07-13T15:47:00;98156.72;;;33.50;43.03
39487;BME280;25173;50.430;18.926;2023-07-13T15:50:01;98147.22;;;33.40;41.84
39487;BME280;25173;50.430;18.926;2023-07-13T15:53:01;98145.09;;;33.44;41.87
39487;BME280;25173;50.430;18.926;2023-07-13T15:56:15;98163.53;;;33.79;40.99
39487;BME280;25173;50.430;18.926;2023-07-13T15:59:17;98170.09;;;33.73;40.80
39487;BME280;25173;50.430;18.926;2023-07-13T16:02:19;98174.56;;;33.43;40.81
39487;BME280;25173;50.430;18.926;2023-07-13T16:05:21;98165.41;;;33.36;41.15
39487;BME280;25173;50.430;18.926;2023-07-13T16:08:31;98177.78;;;33.45;40.47
39487;BME280;25173;50.430;18.926;2023-07-13T16:11:35;98158.00;;;33.72;40.68
39487;BME280;25173;50.430;18.926;2023-07-13T16:14:36;98142.19;;;33.51;40.36
39487;BME280;25173;50.430;18.926;2023-07-13T16:17:36;98147.63;;;33.39;40.26